Aviation Digital Data Service (ADDS)

Output produced by METARs form (1004 UTC 25 July 2016)
found at http://aviationweather.gov/adds/metars/
 
KEKN 250902Z 2509/2606 00000KT 5SM BR SCT001 
     FM251000 00000KT 1SM BR BKN001 
     FM251200 00000KT P6SM SCT045 
     FM252100 27007KT P6SM VCTS BKN050CB 
     FM260000 28004KT 5SM SHRA BR VCTS BKN050CB